Terminal Aerodrome Forecast
Issued by NWS

Home | Current Version | Previous Version | Text Only | Print | Product List | Glossary On
Versions: 1 2 3 4 5 6 7 8 9 10 11 12 13 14 15
000
FTUS46 KSEW 281720
TAFOLM
TAF
KOLM 281720Z 2818/2918 19003KT P6SM BKN015
     FM281900 24006KT P6SM SKC
     FM291000 VRB03KT P6SM BKN012=

USA.gov is the U.S. government's official web portal to all federal, state and local government web resources and services.